Weather at Mont-Tremblant International Airport

Public forecast

Using degrees Celsius for public forecast. Weather courtesy of forecast.io.

Closest aviation weather report (METAR) to Mont-Tremblant International Airport

Closest report is Montreal International (Mirabel) Airport, 53.6 nm (99.3 km) SE.

2024/05/20 06:00 (retrieved 60 minutes ago)

CYMX 200600Z VRB02KT 25SM SKC 14/13 A2993 RMK SLP139

Closest aviation forecast (TAF) to Mont-Tremblant International Airport

Closest forecast is Montreal International (Mirabel) Airport, 53.6 nm (99.3 km) SE.

2024/05/20 06:42 (retrieved 18 minutes ago)

TAF CYMX 200540Z 2006/2106 VRB03KT P6SM SCT060 SCT230 BECMG 2012/2014 22005KT FM201700 25008KT P6SM BKN200 BECMG 2100/2102 VRB03KT RMK NXT FCST BY 201200Z